Time;durP1;ratioP1;P1;durP2;ratioP2;P2;SDS_P1;SDS_P2;PMS_P1;PMS_P2;Temp;Humidity;BMP_temperature;BMP_pressure;BME280_temperature;BME280_humidity;BME280_pressure;Samples;Min_cycle;Max_cycle;Signal;HPM_P1;HPM_P2
2024/03/06 00:00:40;;;;;;;0.10;0.10;;;;;;;9.98;68.72;101875.59;5112568;28;20382;-82
2024/03/06 00:03:06;;;;;;;1.55;0.65;;;;;;;9.96;68.79;101872.97;5107686;28;20031;-81
2024/03/06 00:05:32;;;;;;;0.43;0.43;;;;;;;9.97;68.79;101880.03;5111973;28;20036;-82
2024/03/06 00:08:00;;;;;;;0.32;0.32;;;;;;;9.97;68.78;101879.13;5119229;28;20039;-81
2024/03/06 00:10:26;;;;;;;0.08;0.08;;;;;;;9.95;68.94;101887.09;5117554;28;20375;-81
2024/03/06 00:12:52;;;;;;;1.35;0.75;;;;;;;9.94;69.12;101897.69;5111609;28;20028;-81
2024/03/06 00:15:19;;;;;;;0.10;0.10;;;;;;;9.93;69.09;101894.16;5120149;28;20075;-81
2024/03/06 00:17:45;;;;;;;0.10;0.10;;;;;;;9.92;69.16;101902.97;5123349;28;20442;-82
2024/03/06 00:20:11;;;;;;;0.22;0.22;;;;;;;9.93;68.89;101896.81;5116110;28;20026;-81
2024/03/06 00:22:38;;;;;;;0.13;0.13;;;;;;;9.92;69.16;101899.44;5118708;28;20034;-81
2024/03/06 00:25:04;;;;;;;0.10;0.10;;;;;;;9.92;68.80;101899.44;5117610;28;20036;-79
2024/03/06 00:27:30;;;;;;;0.10;0.10;;;;;;;9.86;68.85;101889.75;5108810;28;20036;-82
2024/03/06 00:29:57;;;;;;;1.08;1.08;;;;;;;9.83;68.92;101898.56;5116876;28;20032;-81
2024/03/06 00:32:23;;;;;;;0.10;0.10;;;;;;;9.79;69.03;101902.06;5112473;28;20043;-80
2024/03/06 00:34:50;;;;;;;0.10;0.10;;;;;;;9.76;68.63;101906.50;5105451;28;20051;-80
2024/03/06 00:37:16;;;;;;;0.20;0.20;;;;;;;9.73;68.65;101896.78;5111526;28;20035;-82
2024/03/06 00:39:43;;;;;;;0.10;0.10;;;;;;;9.71;68.90;101910.03;5120430;28;20038;-80
2024/03/06 00:42:10;;;;;;;0.22;0.22;;;;;;;9.69;68.69;101911.81;5112526;28;20028;-82
2024/03/06 00:44:37;;;;;;;0.10;0.10;;;;;;;9.66;68.87;101908.28;5112287;28;20032;-81
2024/03/06 00:47:03;;;;;;;0.10;0.10;;;;;;;9.65;68.86;101912.66;5116990;28;20110;-82
2024/03/06 00:49:29;;;;;;;0.10;0.10;;;;;;;9.66;68.86;101909.16;5118889;28;20060;-81
2024/03/06 00:51:56;;;;;;;0.10;0.10;;;;;;;9.66;69.17;101914.44;5115007;28;20397;-81
2024/03/06 00:54:22;;;;;;;0.28;0.28;;;;;;;9.67;68.79;101918.84;5114831;28;20028;-80
2024/03/06 00:56:48;;;;;;;1.42;1.33;;;;;;;9.70;68.95;101912.69;5121229;28;20028;-80
2024/03/06 00:59:14;;;;;;;0.20;0.20;;;;;;;9.71;69.00;101920.59;5120350;28;20031;-80
2024/03/06 01:01:41;;;;;;;0.55;0.55;;;;;;;9.71;68.96;101911.81;5115975;28;20059;-80
2024/03/06 01:04:07;;;;;;;0.17;0.17;;;;;;;9.71;69.17;101917.97;5119931;28;20036;-82
2024/03/06 01:06:33;;;;;;;0.20;0.20;;;;;;;9.71;69.07;101925.91;5111853;28;20060;-81
2024/03/06 01:09:00;;;;;;;0.32;0.32;;;;;;;9.73;69.06;101923.25;5110424;28;20027;-80
2024/03/06 01:11:26;;;;;;;0.93;0.65;;;;;;;9.75;68.97;101931.22;5113255;28;20039;-80
2024/03/06 01:13:52;;;;;;;0.10;0.10;;;;;;;9.77;69.05;101937.38;5106395;28;20031;-80
2024/03/06 01:16:19;;;;;;;0.47;0.47;;;;;;;9.78;69.16;101931.19;5108548;28;20035;-81
2024/03/06 01:18:48;;;;;;;0.90;0.90;;;;;;;9.80;69.05;101926.81;5110368;28;20078;-81
2024/03/06 01:21:14;;;;;;;0.10;0.10;;;;;;;9.76;69.08;101932.94;5114299;28;20059;-80
2024/03/06 01:23:41;;;;;;;0.30;0.30;;;;;;;9.76;68.86;101931.22;5114356;28;20032;-81
2024/03/06 01:26:07;;;;;;;0.20;0.20;;;;;;;9.77;68.98;101940.03;5105534;28;20028;-80
2024/03/06 01:28:33;;;;;;;0.52;0.30;;;;;;;9.77;68.93;101925.03;5114588;28;20046;-80
2024/03/06 01:30:59;;;;;;;0.52;0.52;;;;;;;9.78;68.91;101931.19;5105095;28;20167;-78
2024/03/06 01:33:26;;;;;;;0.90;0.90;;;;;;;9.79;69.11;101932.97;5113525;28;20047;-81
2024/03/06 01:35:52;;;;;;;0.10;0.10;;;;;;;9.79;69.43;101932.97;5115336;28;20451;-79
2024/03/06 01:38:18;;;;;;;0.95;0.95;;;;;;;9.79;69.26;101938.25;5114298;28;20034;-80
2024/03/06 01:40:45;;;;;;;0.38;0.38;;;;;;;9.79;69.04;101932.97;5113819;27;20038;-78
2024/03/06 01:43:21;;;;;;;1.17;0.80;;;;;;;9.81;69.01;101939.16;5108848;28;20031;-78
2024/03/06 01:45:49;;;;;;;0.10;0.10;;;;;;;9.76;68.81;101938.25;5097409;28;20032;-79
2024/03/06 01:48:17;;;;;;;0.25;0.25;;;;;;;9.73;68.78;101943.56;5107535;28;20119;-79
2024/03/06 01:50:44;;;;;;;0.25;0.25;;;;;;;9.70;68.87;101947.06;5103235;28;20036;-80
2024/03/06 01:53:10;;;;;;;0.45;0.45;;;;;;;9.66;69.04;101951.47;5106379;28;20111;-81
2024/03/06 01:55:37;;;;;;;0.57;0.57;;;;;;;9.64;69.17;101950.59;5104243;28;20076;-80
2024/03/06 01:58:05;;;;;;;0.10;0.10;;;;;;;9.63;68.99;101945.28;5104605;28;20038;-80
2024/03/06 02:00:33;;;;;;;1.25;1.17;;;;;;;9.61;68.94;101958.53;5106289;28;20023;-80
2024/03/06 02:03:00;;;;;;;0.40;0.40;;;;;;;9.61;68.82;101961.19;5105157;28;20028;-79
2024/03/06 02:05:30;;;;;;;0.10;0.10;;;;;;;9.58;69.01;101950.56;5110220;28;20077;-81
2024/03/06 02:07:59;;;;;;;0.20;0.20;;;;;;;9.59;68.84;101962.94;5113983;28;20020;-82
2024/03/06 02:10:28;;;;;;;0.65;0.65;;;;;;;9.58;68.96;101965.56;5109930;28;20050;-82
2024/03/06 02:12:55;;;;;;;0.45;0.45;;;;;;;9.54;69.19;101959.41;5113542;28;20032;-82
2024/03/06 02:15:21;;;;;;;0.63;0.63;;;;;;;9.51;69.06;101965.56;5107167;28;20024;-80
2024/03/06 02:17:47;;;;;;;0.10;0.10;;;;;;;9.47;68.97;101960.25;5103792;28;20088;-80
2024/03/06 02:20:15;;;;;;;0.65;0.65;;;;;;;9.44;69.00;101969.06;5105907;28;20131;-81
2024/03/06 02:22:45;;;;;;;2.15;2.05;;;;;;;9.42;69.20;101959.38;5104473;28;20035;-80
2024/03/06 02:25:14;;;;;;;0.17;0.17;;;;;;;9.35;69.40;101958.47;5105057;28;20466;-80
2024/03/06 02:27:41;;;;;;;0.30;0.30;;;;;;;9.30;68.96;101958.44;5101865;28;20020;-81
2024/03/06 02:30:07;;;;;;;1.45;0.98;;;;;;;9.26;69.31;101958.44;5102733;28;20066;-81
2024/03/06 02:32:34;;;;;;;0.40;0.40;;;;;;;9.19;69.25;101962.81;5104821;28;20031;-81
2024/03/06 02:35:03;;;;;;;0.28;0.28;;;;;;;9.13;69.17;101968.09;5105519;28;20491;-80
2024/03/06 02:37:29;;;;;;;1.27;1.27;;;;;;;9.05;69.04;101966.28;5101790;28;20019;-81
2024/03/06 02:39:55;;;;;;;0.10;0.10;;;;;;;9.02;68.97;101970.66;5103143;28;20024;-81
2024/03/06 02:42:24;;;;;;;0.38;0.38;;;;;;;9.01;69.54;101972.44;5104428;28;20027;-80
2024/03/06 02:44:51;;;;;;;0.10;0.10;;;;;;;8.96;69.58;101968.91;5100757;28;20497;-80
2024/03/06 02:47:20;;;;;;;0.40;0.40;;;;;;;8.94;69.22;101975.06;5101041;28;20039;-81
2024/03/06 02:49:46;;;;;;;0.10;0.10;;;;;;;8.91;69.61;101970.66;5103186;28;20034;-80
2024/03/06 02:52:12;;;;;;;0.40;0.40;;;;;;;8.92;69.31;101969.75;5104660;28;20384;-81
2024/03/06 02:54:42;;;;;;;0.15;0.15;;;;;;;8.95;69.66;101966.22;5113327;28;20034;-80
2024/03/06 02:57:08;;;;;;;4.53;1.38;;;;;;;8.95;69.43;101975.06;5112918;28;20062;-82
2024/03/06 02:59:39;;;;;;;0.25;0.25;;;;;;;8.97;69.83;101968.03;5112860;28;20036;-82
2024/03/06 03:02:08;;;;;;;0.17;0.17;;;;;;;8.99;69.99;101966.25;5112382;28;20028;-81
2024/03/06 03:04:34;;;;;;;0.10;0.10;;;;;;;8.98;69.63;101968.91;5113287;28;20045;-80
2024/03/06 03:07:03;;;;;;;0.10;0.10;;;;;;;8.98;69.91;101971.53;5106445;28;20548;-79
2024/03/06 03:09:32;;;;;;;0.15;0.15;;;;;;;8.98;69.68;101958.31;5104034;28;20486;-80
2024/03/06 03:11:59;;;;;;;0.68;0.68;;;;;;;8.96;70.01;101960.97;5108837;28;20498;-80
2024/03/06 03:14:25;;;;;;;0.20;0.20;;;;;;;8.96;70.21;101966.25;5108546;28;20049;-82
2024/03/06 03:16:51;;;;;;;1.13;1.10;;;;;;;8.94;69.68;101968.00;5106334;28;20024;-79
2024/03/06 03:19:17;;;;;;;0.40;0.40;;;;;;;8.96;69.48;101974.19;5111309;28;20031;-82
2024/03/06 03:21:46;;;;;;;0.10;0.10;;;;;;;8.97;69.83;101975.97;5108816;28;20034;-82
2024/03/06 03:24:12;;;;;;;0.20;0.20;;;;;;;8.93;69.95;101976.81;5115722;28;20076;-80
2024/03/06 03:26:38;;;;;;;0.77;0.77;;;;;;;8.92;69.93;101975.03;5114037;28;20036;-81
2024/03/06 03:29:05;;;;;;;0.13;0.13;;;;;;;8.90;69.45;101976.81;5109314;28;20027;-80
2024/03/06 03:31:31;;;;;;;0.10;0.10;;;;;;;8.88;69.99;101983.81;5115442;28;20031;-80
2024/03/06 03:33:59;;;;;;;0.10;0.10;;;;;;;8.88;69.58;101983.81;5109988;28;20019;-79
2024/03/06 03:36:25;;;;;;;5.28;1.17;;;;;;;8.85;69.94;101983.81;5111651;28;20473;-79
2024/03/06 03:38:51;;;;;;;2.67;1.55;;;;;;;8.84;69.45;101982.91;5105564;28;20093;-78
2024/03/06 03:41:17;;;;;;;0.10;0.10;;;;;;;8.85;69.39;101991.75;5112853;28;20035;-78
2024/03/06 03:43:43;;;;;;;0.93;0.93;;;;;;;8.82;69.78;101989.97;5103221;28;20047;-78
2024/03/06 03:46:10;;;;;;;0.80;0.80;;;;;;;8.84;69.65;101989.97;5098492;28;20123;-80
2024/03/06 03:48:36;;;;;;;0.40;0.40;;;;;;;8.85;69.93;101989.13;5109015;28;20035;-79
2024/03/06 03:51:04;;;;;;;0.10;0.10;;;;;;;8.85;69.69;101997.03;5103134;28;20027;-79
2024/03/06 03:53:31;;;;;;;0.40;0.40;;;;;;;8.86;69.99;101990.84;5103820;28;20035;-79
2024/03/06 03:55:57;;;;;;;0.47;0.47;;;;;;;8.86;69.78;101996.13;5102543;28;20038;-79
2024/03/06 03:58:24;;;;;;;0.80;0.80;;;;;;;8.85;69.79;101991.75;5097982;28;20039;-79
2024/03/06 04:00:52;;;;;;;0.10;0.10;;;;;;;8.84;69.90;102000.56;5110736;28;20073;-80
2024/03/06 04:03:20;;;;;;;0.40;0.40;;;;;;;8.83;70.29;101990.84;5103741;28;20495;-79
2024/03/06 04:05:48;;;;;;;3.05;0.90;;;;;;;8.79;70.11;102000.50;5113071;28;20039;-81
2024/03/06 04:08:14;;;;;;;0.10;0.10;;;;;;;8.75;70.19;102004.03;5108279;28;20035;-81
2024/03/06 04:10:42;;;;;;;0.10;0.10;;;;;;;8.69;69.85;101999.56;5107261;28;20028;-82
2024/03/06 04:13:08;;;;;;;0.10;0.10;;;;;;;8.64;69.75;102001.31;5111287;28;20517;-81
2024/03/06 04:15:35;;;;;;;0.38;0.38;;;;;;;8.59;70.07;102003.03;5102672;28;20077;-80
2024/03/06 04:18:01;;;;;;;0.10;0.10;;;;;;;8.50;69.53;102005.59;5112707;28;20096;-81
2024/03/06 04:20:27;;;;;;;0.10;0.10;;;;;;;8.42;69.86;102010.78;5115686;28;20035;-81
2024/03/06 04:22:53;;;;;;;0.15;0.15;;;;;;;8.33;69.94;102001.03;5105838;28;20572;-81
2024/03/06 04:25:20;;;;;;;0.10;0.10;;;;;;;8.27;69.30;102006.28;5106905;28;20110;-81
2024/03/06 04:27:46;;;;;;;0.20;0.20;;;;;;;8.21;69.46;102000.94;5112638;28;20474;-81
2024/03/06 04:30:12;;;;;;;0.30;0.30;;;;;;;8.14;69.92;102007.94;5113950;28;20046;-81
2024/03/06 04:32:39;;;;;;;0.60;0.60;;;;;;;8.09;70.01;102002.59;5111433;28;20027;-79
2024/03/06 04:35:09;;;;;;;0.10;0.10;;;;;;;8.06;69.96;102012.25;5119878;28;20046;-80
2024/03/06 04:37:35;;;;;;;1.45;1.35;;;;;;;8.00;69.75;102017.47;5122310;28;20047;-79
2024/03/06 04:40:07;;;;;;;0.28;0.28;;;;;;;7.96;69.35;102021.81;5119802;28;20036;-79
2024/03/06 04:42:35;;;;;;;0.20;0.20;;;;;;;7.90;69.67;102024.41;5117965;28;20031;-79
2024/03/06 04:45:03;;;;;;;0.10;0.10;;;;;;;7.83;69.28;102017.31;5116400;28;20024;-79
2024/03/06 04:47:31;;;;;;;0.30;0.30;;;;;;;7.76;69.41;102030.44;5111143;28;20039;-79
2024/03/06 04:49:58;;;;;;;0.10;0.10;;;;;;;7.68;70.17;102032.09;5115258;28;20039;-79
2024/03/06 04:52:24;;;;;;;0.10;0.10;;;;;;;7.62;69.52;102032.03;5129481;28;20035;-80
2024/03/06 04:54:50;;;;;;;1.08;0.50;;;;;;;7.58;69.87;102035.53;5133942;28;20015;-81
2024/03/06 04:57:16;;;;;;;0.15;0.15;;;;;;;7.54;69.57;102044.25;5129145;28;20053;-81
2024/03/06 04:59:42;;;;;;;0.10;0.10;;;;;;;7.50;69.74;102037.16;5112568;28;20042;-82
2024/03/06 05:02:09;;;;;;;0.10;0.10;;;;;;;7.46;69.91;102049.44;5114871;28;20138;-82
2024/03/06 05:04:35;;;;;;;0.10;0.10;;;;;;;7.42;69.76;102047.63;5116193;28;20027;-82
2024/03/06 05:07:01;;;;;;;0.13;0.13;;;;;;;7.38;69.99;102046.69;5110077;28;20035;-81
2024/03/06 05:09:27;;;;;;;0.13;0.13;;;;;;;7.38;70.43;102053.75;5106969;28;20031;-81
2024/03/06 05:11:53;;;;;;;0.10;0.10;;;;;;;7.37;70.15;102047.56;5112107;28;20363;-82
2024/03/06 05:14:19;;;;;;;0.30;0.30;;;;;;;7.37;70.44;102058.09;5119079;28;20038;-82
2024/03/06 05:16:46;;;;;;;0.10;0.10;;;;;;;7.39;70.70;102056.38;5105617;28;20064;-82
2024/03/06 05:19:12;;;;;;;0.10;0.10;;;;;;;7.39;70.59;102056.38;5111525;28;20030;-82
2024/03/06 05:21:38;;;;;;;0.15;0.15;;;;;;;7.40;70.28;102051.97;5105477;28;20028;-82
2024/03/06 05:24:04;;;;;;;0.52;0.52;;;;;;;7.39;70.66;102058.13;5113175;28;20492;-81
2024/03/06 05:26:31;;;;;;;2.60;2.15;;;;;;;7.38;70.43;102059.88;5114037;28;20058;-81
2024/03/06 05:28:57;;;;;;;0.40;0.40;;;;;;;7.38;71.03;102059.88;5116960;28;20486;-81
2024/03/06 05:31:24;;;;;;;1.30;1.20;;;;;;;7.37;70.88;102066.00;5108299;28;20047;-80
2024/03/06 05:33:50;;;;;;;0.30;0.30;;;;;;;7.38;70.64;102072.19;5114059;28;20020;-80
2024/03/06 05:36:17;;;;;;;0.10;0.10;;;;;;;7.37;70.73;102068.66;5111789;28;20063;-81
2024/03/06 05:38:44;;;;;;;2.17;1.75;;;;;;;7.37;71.04;102071.28;5112376;28;20042;-78
2024/03/06 05:41:10;;;;;;;0.10;0.10;;;;;;;7.38;71.20;102080.97;5115312;28;20402;-80
2024/03/06 05:43:37;;;;;;;0.20;0.20;;;;;;;7.35;70.66;102078.31;5111030;28;20031;-79
2024/03/06 05:46:04;;;;;;;2.42;0.95;;;;;;;7.32;70.65;102090.56;5105984;28;20479;-80
2024/03/06 05:48:30;;;;;;;0.10;0.10;;;;;;;7.27;71.50;102093.13;5110816;28;20062;-80
2024/03/06 05:50:57;;;;;;;1.90;0.75;;;;;;;7.22;71.09;102094.81;5112779;28;20494;-79
2024/03/06 05:53:23;;;;;;;1.48;1.48;;;;;;;7.15;71.14;102096.47;5109295;28;20470;-81
2024/03/06 05:55:49;;;;;;;0.28;0.28;;;;;;;7.11;71.38;102103.44;5114819;28;20312;-80
2024/03/06 05:58:16;;;;;;;0.20;0.20;;;;;;;7.05;70.99;102098.09;5116663;28;20124;-80
2024/03/06 06:00:43;;;;;;;0.15;0.15;;;;;;;7.03;71.38;102106.81;5116365;28;20386;-80
2024/03/06 06:03:12;;;;;;;0.17;0.17;;;;;;;6.96;71.23;102105.84;5115267;28;20019;-79
2024/03/06 06:05:40;;;;;;;0.55;0.35;;;;;;;6.96;71.00;102113.75;5110399;28;20024;-79
2024/03/06 06:08:06;;;;;;;0.20;0.20;;;;;;;6.91;71.08;102120.72;5100245;28;20031;-79
2024/03/06 06:10:33;;;;;;;0.65;0.65;;;;;;;6.89;71.26;102122.44;5104270;28;20456;-79
2024/03/06 06:12:59;;;;;;;0.57;0.57;;;;;;;6.87;71.24;102130.31;5103636;28;20041;-79
2024/03/06 06:15:25;;;;;;;1.55;1.25;;;;;;;6.87;71.40;102130.31;5102798;28;20024;-79
2024/03/06 06:17:52;;;;;;;0.10;0.10;;;;;;;6.90;71.48;102129.47;5110486;28;20051;-81
2024/03/06 06:20:18;;;;;;;0.40;0.40;;;;;;;6.89;71.97;102130.34;5112873;28;20387;-80
2024/03/06 06:22:45;;;;;;;1.60;0.38;;;;;;;6.87;71.79;102138.22;5111955;28;20034;-81
2024/03/06 06:25:12;;;;;;;0.38;0.38;;;;;;;6.88;71.61;102137.38;5109678;28;20042;-81
2024/03/06 06:27:38;;;;;;;1.15;1.15;;;;;;;6.88;71.36;102142.63;5102322;28;20038;-80
2024/03/06 06:30:06;;;;;;;0.63;0.63;;;;;;;6.89;71.74;102143.50;5113582;28;20080;-81
2024/03/06 06:32:32;;;;;;;0.10;0.10;;;;;;;6.92;71.73;102148.84;5106159;28;20543;-80
2024/03/06 06:34:58;;;;;;;0.80;0.80;;;;;;;6.91;72.11;102157.59;5114001;28;20300;-80
2024/03/06 06:37:25;;;;;;;2.03;1.85;;;;;;;6.93;71.77;102154.13;5111543;28;20032;-79
2024/03/06 06:39:51;;;;;;;1.38;1.27;;;;;;;6.99;72.32;102158.63;5111457;28;20035;-80
2024/03/06 06:42:17;;;;;;;0.30;0.30;;;;;;;7.02;71.94;102166.56;5106732;28;20032;-78
2024/03/06 06:44:43;;;;;;;0.10;0.10;;;;;;;7.04;72.31;102172.75;5109922;28;20410;-80
2024/03/06 06:47:09;;;;;;;0.10;0.10;;;;;;;7.10;72.39;102169.31;5110624;28;20027;-80
2024/03/06 06:49:35;;;;;;;0.10;0.10;;;;;;;7.12;72.37;102181.66;5112752;28;20573;-82
2024/03/06 06:52:02;;;;;;;0.70;0.45;;;;;;;7.17;71.96;102181.72;5112321;28;20376;-81
2024/03/06 06:54:28;;;;;;;0.10;0.10;;;;;;;7.18;72.38;102188.78;5117523;28;20478;-81
2024/03/06 06:56:54;;;;;;;0.10;0.10;;;;;;;7.21;71.99;102187.94;5114955;27;20035;-80
2024/03/06 06:59:22;;;;;;;0.50;0.50;;;;;;;7.23;72.64;102196.78;5111828;28;20027;-79
2024/03/06 07:01:48;;;;;;;0.10;0.10;;;;;;;7.26;72.33;102192.44;5111982;28;20016;-81
2024/03/06 07:04:16;;;;;;;0.10;0.10;;;;;;;7.29;72.00;102202.16;5116920;28;20036;-80
2024/03/06 07:06:42;;;;;;;0.22;0.22;;;;;;;7.30;72.22;102198.63;5115535;28;20026;-80
2024/03/06 07:09:09;;;;;;;0.20;0.20;;;;;;;7.33;71.92;102205.69;5112492;28;20102;-80
2024/03/06 07:11:35;;;;;;;0.25;0.25;;;;;;;7.33;72.23;102211.88;5108493;28;20095;-79
2024/03/06 07:14:01;;;;;;;0.10;0.10;;;;;;;7.35;72.04;102212.78;5108425;28;20407;-80
2024/03/06 07:16:27;;;;;;;0.10;0.10;;;;;;;7.37;71.99;102207.53;5110048;28;20027;-79
2024/03/06 07:18:54;;;;;;;2.50;2.30;;;;;;;7.40;72.28;102220.75;5114087;28;20550;-80
2024/03/06 07:21:20;;;;;;;0.88;0.88;;;;;;;7.47;72.33;102216.47;5113198;28;20035;-79
2024/03/06 07:23:46;;;;;;;0.13;0.13;;;;;;;7.51;71.76;102218.28;5104401;28;20028;-80
2024/03/06 07:26:12;;;;;;;0.20;0.20;;;;;;;7.54;72.56;102235.03;5108781;28;20525;-79
2024/03/06 07:28:38;;;;;;;0.10;0.10;;;;;;;7.57;72.27;102228.91;5102989;28;20047;-79
2024/03/06 07:31:04;;;;;;;0.10;0.10;;;;;;;7.61;72.59;102225.44;5106368;28;20036;-78
2024/03/06 07:33:33;;;;;;;0.50;0.50;;;;;;;7.70;72.60;102229.97;5112340;28;20023;-79
2024/03/06 07:36:00;;;;;;;0.10;0.10;;;;;;;7.80;72.44;102226.63;5117136;28;20020;-78
2024/03/06 07:38:26;;;;;;;0.25;0.25;;;;;;;7.84;72.65;102232.81;5121271;28;20027;-78
2024/03/06 07:40:53;;;;;;;0.60;0.60;;;;;;;7.94;72.63;102234.72;5127058;28;20448;-78
2024/03/06 07:43:19;;;;;;;0.20;0.20;;;;;;;7.97;73.08;102240.03;5126828;28;20022;-78
2024/03/06 07:45:47;;;;;;;0.10;0.10;;;;;;;8.08;73.05;102248.97;5125765;28;20035;-79
2024/03/06 07:48:13;;;;;;;2.15;1.83;;;;;;;8.14;73.10;102244.63;5122808;28;20035;-79
2024/03/06 07:50:40;;;;;;;3.17;1.90;;;;;;;8.19;72.98;102245.59;5112093;28;20047;-79
2024/03/06 07:53:06;;;;;;;0.20;0.20;;;;;;;8.26;72.66;102250.06;5121691;28;20020;-79
2024/03/06 07:55:32;;;;;;;0.10;0.10;;;;;;;8.32;72.53;102247.50;5119673;28;20028;-79
2024/03/06 07:57:58;;;;;;;0.17;0.17;;;;;;;8.44;72.62;102246.78;5107730;28;20028;-79
2024/03/06 08:00:24;;;;;;;0.10;0.10;;;;;;;8.53;73.11;102249.53;5097740;28;20036;-80
2024/03/06 08:02:51;;;;;;;0.10;0.10;;;;;;;8.64;72.68;102256.72;5108541;28;20107;-79
2024/03/06 08:05:17;;;;;;;1.67;1.58;;;;;;;8.74;72.95;102255.94;5116663;28;20027;-80
2024/03/06 08:07:45;;;;;;;0.13;0.13;;;;;;;8.89;72.26;102265.78;5117435;28;20051;-79
2024/03/06 08:10:13;;;;;;;1.00;1.00;;;;;;;8.95;72.83;102268.47;5117336;28;20038;-80
2024/03/06 08:12:41;;;;;;;2.30;2.05;;;;;;;9.05;72.73;102272.09;5121170;28;20051;-79
2024/03/06 08:15:11;;;;;;;0.10;0.10;;;;;;;9.13;72.67;102264.22;5117637;28;20027;-79
2024/03/06 08:17:39;;;;;;;0.10;0.10;;;;;;;9.23;72.44;102263.44;5110474;28;20023;-78
2024/03/06 08:20:07;;;;;;;0.63;0.63;;;;;;;9.29;72.02;102274.06;5113042;28;20038;-78
2024/03/06 08:22:39;;;;;;;0.10;0.10;;;;;;;9.31;71.96;102272.31;5111443;28;20095;-77
2024/03/06 08:27:42;;;;;;;0.20;0.20;;;;;;;9.32;71.85;102291.72;5092032;27;1451840;-78
2024/03/06 08:30:09;;;;;;;0.10;0.10;;;;;;;9.35;71.99;102287.34;5120202;28;20115;-78
2024/03/06 08:32:37;;;;;;;0.10;0.10;;;;;;;9.39;71.86;102288.25;5119423;28;20038;-79
2024/03/06 08:35:06;;;;;;;1.33;1.23;;;;;;;9.46;71.84;102290.06;5130915;27;20027;-80
2024/03/06 08:37:33;;;;;;;0.28;0.28;;;;;;;9.53;71.90;102296.28;5122535;27;20031;-79
2024/03/06 08:40:00;;;;;;;0.50;0.50;;;;;;;9.59;72.07;102301.63;5119860;28;20027;-80
2024/03/06 08:42:28;;;;;;;0.38;0.38;;;;;;;9.71;71.79;102301.72;5133363;28;20032;-79
2024/03/06 08:44:54;;;;;;;0.20;0.20;;;;;;;9.81;71.76;102307.97;5137241;27;20030;-80
2024/03/06 08:47:20;;;;;;;0.65;0.65;;;;;;;9.94;71.66;102310.69;5135644;28;20476;-80
2024/03/06 08:49:46;;;;;;;0.50;0.50;;;;;;;10.05;71.50;102306.34;5129628;28;20023;-79
2024/03/06 08:52:13;;;;;;;2.65;2.55;;;;;;;10.16;71.26;102303.75;5111605;28;20027;-78
2024/03/06 08:54:41;;;;;;;0.10;0.10;;;;;;;10.28;71.77;102306.47;5114792;28;20477;-80
2024/03/06 08:57:08;;;;;;;0.45;0.45;;;;;;;10.38;71.02;102310.09;5113636;28;20065;-81
2024/03/06 08:59:34;;;;;;;0.10;0.10;;;;;;;10.49;71.21;102310.13;5113958;28;20020;-82
2024/03/06 09:02:14;;;;;;;0.95;0.95;;;;;;;10.68;71.22;102309.31;5110245;28;20091;-82
2024/03/06 09:04:42;;;;;;;1.05;1.05;;;;;;;10.75;70.96;102317.28;5116833;28;20031;-82
2024/03/06 09:07:09;;;;;;;0.75;0.75;;;;;;;10.85;70.97;102311.13;5115713;28;20396;-82
2024/03/06 09:09:36;;;;;;;0.50;0.50;;;;;;;10.95;71.14;102312.94;5118660;28;20047;-81
2024/03/06 09:12:05;;;;;;;0.43;0.43;;;;;;;11.12;71.07;102320.03;5119179;28;20027;-81
2024/03/06 09:14:32;;;;;;;0.30;0.30;;;;;;;11.28;70.58;102321.78;5118135;28;20046;-82
2024/03/06 09:16:58;;;;;;;1.02;0.98;;;;;;;11.44;70.65;102321.78;5117978;28;20023;-82
2024/03/06 09:19:24;;;;;;;0.50;0.50;;;;;;;11.56;70.54;102316.47;5117986;28;20563;-82
2024/03/06 09:21:50;;;;;;;0.20;0.20;;;;;;;11.69;71.04;102321.78;5119543;28;20035;-82
2024/03/06 09:24:16;;;;;;;0.35;0.35;;;;;;;11.78;70.27;102321.78;5125194;28;20027;-82
2024/03/06 09:26:44;;;;;;;0.30;0.30;;;;;;;11.84;69.92;102324.44;5131095;28;20085;-81
2024/03/06 09:29:10;;;;;;;0.10;0.10;;;;;;;11.90;70.16;102324.44;5128956;28;20040;-80
2024/03/06 09:31:37;;;;;;;0.30;0.30;;;;;;;11.96;68.96;102327.13;5111510;28;20023;-81
2024/03/06 09:34:03;;;;;;;0.20;0.20;;;;;;;12.02;69.39;102330.63;5125316;28;20554;-81
2024/03/06 09:36:30;;;;;;;0.47;0.47;;;;;;;12.07;68.20;102329.72;5130347;28;20028;-80
2024/03/06 09:38:56;;;;;;;0.50;0.50;;;;;;;12.11;67.70;102338.56;5119285;28;20397;-80
2024/03/06 09:41:22;;;;;;;0.47;0.47;;;;;;;12.12;67.08;102337.69;5105201;28;20103;-81
2024/03/06 09:43:49;;;;;;;1.67;1.58;;;;;;;12.18;66.60;102336.81;5101754;28;20030;-81
2024/03/06 09:46:15;;;;;;;0.30;0.30;;;;;;;12.21;66.26;102348.31;5097395;28;20035;-82
2024/03/06 09:48:47;;;;;;;0.47;0.40;;;;;;;12.32;66.85;102345.59;5097567;28;20043;-81
2024/03/06 09:51:13;;;;;;;0.30;0.30;;;;;;;12.36;67.48;102341.16;5097377;28;20125;-79
2024/03/06 09:53:41;;;;;;;0.60;0.60;;;;;;;12.44;67.08;102347.34;5097281;28;20499;-81
2024/03/06 09:56:08;;;;;;;0.75;0.75;;;;;;;12.49;66.63;102350.88;5097010;28;20024;-82
2024/03/06 09:58:35;;;;;;;0.40;0.40;;;;;;;12.53;65.54;102355.28;5098622;28;20200;-80
2024/03/06 10:01:06;;;;;;;1.52;1.42;;;;;;;12.52;64.91;102357.94;5094226;28;20150;-79
2024/03/06 10:03:33;;;;;;;1.13;0.95;;;;;;;12.57;64.74;102356.16;5094649;28;20479;-79
2024/03/06 10:06:00;;;;;;;0.20;0.20;;;;;;;12.64;64.71;102362.34;5093453;28;20039;-80
2024/03/06 10:08:27;;;;;;;0.70;0.70;;;;;;;12.73;65.07;102364.94;5097350;28;20028;-80
2024/03/06 10:10:54;;;;;;;1.20;0.35;;;;;;;12.82;65.06;102364.03;5092902;28;20107;-80
2024/03/06 10:13:25;;;;;;;0.35;0.35;;;;;;;12.93;64.84;102356.88;5097102;28;20142;-80
2024/03/06 10:16:08;;;;;;;0.40;0.40;;;;;;;13.08;65.11;102363.88;5090098;28;20020;-80
2024/03/06 10:18:35;;;;;;;1.58;1.48;;;;;;;13.00;63.16;102360.41;5095347;28;20051;-81
2024/03/06 10:21:01;;;;;;;0.50;0.50;;;;;;;13.04;63.19;102363.00;5096345;28;20085;-81
2024/03/06 10:23:29;;;;;;;0.82;0.82;;;;;;;13.09;62.89;102360.31;5097117;28;20024;-81
2024/03/06 10:25:55;;;;;;;1.23;1.23;;;;;;;13.09;62.02;102360.31;5094934;28;20035;-79
2024/03/06 10:28:23;;;;;;;0.10;0.10;;;;;;;13.21;61.99;102365.56;5095402;28;20024;-78
2024/03/06 10:30:51;;;;;;;0.35;0.35;;;;;;;13.30;62.66;102364.63;5096242;28;20024;-80
2024/03/06 10:33:18;;;;;;;1.55;0.73;;;;;;;13.33;61.29;102363.72;5094701;28;20032;-80
2024/03/06 10:35:48;;;;;;;4.43;3.63;;;;;;;13.46;61.74;102370.75;5092699;28;20020;-80
2024/03/06 10:38:14;;;;;;;1.38;1.27;;;;;;;13.59;61.24;102364.44;5094261;28;20110;-80
2024/03/06 10:40:42;;;;;;;0.15;0.15;;;;;;;13.70;61.08;102368.78;5094052;28;20047;-77
2024/03/06 10:43:09;;;;;;;0.88;0.88;;;;;;;13.75;59.10;102369.63;5098180;28;20084;-77
2024/03/06 10:48:20;;;;;;;0.13;0.13;;;;;;;13.86;59.35;102369.53;5068931;28;20410;-79
2024/03/06 10:50:48;;;;;;;0.35;0.35;;;;;;;14.01;59.28;102376.50;5071793;28;20042;-80
2024/03/06 10:53:16;;;;;;;0.10;0.10;;;;;;;14.17;57.54;102383.44;5071777;28;20029;-79
2024/03/06 10:55:45;;;;;;;0.85;0.85;;;;;;;14.35;59.42;102387.69;5070319;28;20115;-80
2024/03/06 10:58:12;;;;;;;0.10;0.10;;;;;;;14.55;58.64;102386.56;5069283;28;20147;-78
2024/03/06 11:03:17;;;;;;;0.50;0.50;;;;;;;15.00;55.57;102376.25;5097663;27;1203238;-80
2024/03/06 11:05:47;;;;;;;0.43;0.43;;;;;;;15.10;56.56;102384.13;5112205;28;20024;-80
2024/03/06 11:08:16;;;;;;;0.52;0.52;;;;;;;15.13;57.26;102382.28;5114593;28;20077;-80
2024/03/06 11:10:43;;;;;;;0.98;0.98;;;;;;;15.22;57.26;102388.41;5111708;28;20024;-79
2024/03/06 11:13:25;;;;;;;0.10;0.10;;;;;;;15.43;56.90;102382.72;5109795;28;20054;-81
2024/03/06 11:15:53;;;;;;;0.70;0.70;;;;;;;15.35;56.35;102395.31;5110371;28;20096;-80
2024/03/06 11:27:00;;;;;;;1.00;1.00;;;;;;;14.97;56.92;102399.44;5116160;27;20377;-82
2024/03/06 11:29:50;;;;;;;1.52;1.42;;;;;;;15.00;55.36;102402.03;5098047;28;20388;-82
2024/03/06 11:32:17;;;;;;;0.30;0.30;;;;;;;14.93;56.05;102403.03;5095258;28;20122;-82
2024/03/06 11:34:43;;;;;;;0.25;0.25;;;;;;;14.93;54.90;102400.34;5090138;28;20028;-82
2024/03/06 11:37:10;;;;;;;0.52;0.52;;;;;;;14.96;55.60;102411.00;5073434;28;20032;-83
2024/03/06 11:39:37;;;;;;;0.45;0.45;;;;;;;15.00;55.60;102410.06;5076012;28;20032;-83
2024/03/06 11:42:07;;;;;;;0.25;0.25;;;;;;;15.01;55.26;102410.03;5079369;28;20032;-82
2024/03/06 11:44:35;;;;;;;1.15;1.15;;;;;;;14.93;54.79;102413.69;5078145;28;20054;-82
2024/03/06 11:47:04;;;;;;;0.88;0.88;;;;;;;14.85;55.83;102412.03;5071222;28;20454;-81